sensor_id;sensor_type;location;lat;lon;timestamp;P1;durP1;ratioP1;P2;durP2;ratioP2
73678;SDS011;61978;52.742;16.962;2023-06-22T00:02:53;145.50;;;17.60;;
73678;SDS011;61978;52.742;16.962;2023-06-22T00:11:40;90.20;;;15.20;;
73678;SDS011;61978;52.742;16.962;2023-06-22T00:14:06;53.30;;;16.60;;
73678;SDS011;61978;52.742;16.962;2023-06-22T00:16:34;412.90;;;24.00;;
73678;SDS011;61978;52.742;16.962;2023-06-22T00:21:59;366.50;;;25.80;;
73678;SDS011;61978;52.742;16.962;2023-06-22T00:24:29;177.20;;;16.40;;
73678;SDS011;61978;52.742;16.962;2023-06-22T00:30:11;35.30;;;9.50;;
73678;SDS011;61978;52.742;16.962;2023-06-22T00:32:38;10.90;;;9.40;;
73678;SDS011;61978;52.742;16.962;2023-06-22T00:35:21;185.00;;;14.00;;
73678;SDS011;61978;52.742;16.962;2023-06-22T00:37:56;230.20;;;13.40;;
73678;SDS011;61978;52.742;16.962;2023-06-22T00:43:33;209.80;;;13.10;;
73678;SDS011;61978;52.742;16.962;2023-06-22T00:46:10;324.50;;;17.80;;
73678;SDS011;61978;52.742;16.962;2023-06-22T00:48:37;402.30;;;21.70;;
73678;SDS011;61978;52.742;16.962;2023-06-22T00:51:02;266.40;;;18.70;;
73678;SDS011;61978;52.742;16.962;2023-06-22T00:53:29;411.30;;;24.00;;
73678;SDS011;61978;52.742;16.962;2023-06-22T00:56:04;441.60;;;26.00;;
73678;SDS011;61978;52.742;16.962;2023-06-22T00:58:35;366.80;;;20.90;;
73678;SDS011;61978;52.742;16.962;2023-06-22T01:01:07;406.10;;;22.50;;
73678;SDS011;61978;52.742;16.962;2023-06-22T01:03:33;259.50;;;18.60;;
73678;SDS011;61978;52.742;16.962;2023-06-22T01:06:04;241.60;;;16.30;;
73678;SDS011;61978;52.742;16.962;2023-06-22T01:11:29;171.30;;;16.40;;
73678;SDS011;61978;52.742;16.962;2023-06-22T01:16:30;195.40;;;16.10;;
73678;SDS011;61978;52.742;16.962;2023-06-22T01:19:07;231.30;;;18.30;;
73678;SDS011;61978;52.742;16.962;2023-06-22T01:21:38;232.80;;;16.80;;
73678;SDS011;61978;52.742;16.962;2023-06-22T01:24:30;149.70;;;13.90;;
73678;SDS011;61978;52.742;16.962;2023-06-22T01:33:57;412.20;;;25.30;;
73678;SDS011;61978;52.742;16.962;2023-06-22T01:36:38;307.30;;;20.00;;
73678;SDS011;61978;52.742;16.962;2023-06-22T01:39:05;227.70;;;22.00;;
73678;SDS011;61978;52.742;16.962;2023-06-22T01:45:04;160.30;;;16.90;;
73678;SDS011;61978;52.742;16.962;2023-06-22T01:50:59;166.00;;;17.60;;
73678;SDS011;61978;52.742;16.962;2023-06-22T01:53:25;190.90;;;18.50;;
73678;SDS011;61978;52.742;16.962;2023-06-22T01:55:58;181.80;;;22.70;;
73678;SDS011;61978;52.742;16.962;2023-06-22T01:58:48;83.40;;;16.40;;
73678;SDS011;61978;52.742;16.962;2023-06-22T02:02:05;92.80;;;17.10;;
73678;SDS011;61978;52.742;16.962;2023-06-22T02:04:46;58.90;;;15.50;;
73678;SDS011;61978;52.742;16.962;2023-06-22T02:07:15;39.10;;;16.50;;
73678;SDS011;61978;52.742;16.962;2023-06-22T02:09:44;42.40;;;15.80;;
73678;SDS011;61978;52.742;16.962;2023-06-22T02:12:13;27.40;;;14.40;;
73678;SDS011;61978;52.742;16.962;2023-06-22T02:14:58;55.10;;;14.20;;
73678;SDS011;61978;52.742;16.962;2023-06-22T02:17:26;415.40;;;23.00;;
73678;SDS011;61978;52.742;16.962;2023-06-22T02:19:53;102.50;;;17.70;;
73678;SDS011;61978;52.742;16.962;2023-06-22T02:25:25;28.50;;;13.90;;
73678;SDS011;61978;52.742;16.962;2023-06-22T02:34:30;33.00;;;18.60;;
73678;SDS011;61978;52.742;16.962;2023-06-22T02:37:40;50.00;;;24.60;;
73678;SDS011;61978;52.742;16.962;2023-06-22T02:40:09;58.10;;;26.80;;
73678;SDS011;61978;52.742;16.962;2023-06-22T02:48:40;81.20;;;33.90;;
73678;SDS011;61978;52.742;16.962;2023-06-22T02:51:07;97.00;;;34.70;;
73678;SDS011;61978;52.742;16.962;2023-06-22T02:53:33;90.40;;;34.60;;
73678;SDS011;61978;52.742;16.962;2023-06-22T02:56:02;69.50;;;33.40;;
73678;SDS011;61978;52.742;16.962;2023-06-22T03:04:24;53.00;;;27.20;;
73678;SDS011;61978;52.742;16.962;2023-06-22T03:06:50;55.00;;;30.90;;
73678;SDS011;61978;52.742;16.962;2023-06-22T03:09:16;55.80;;;28.80;;
73678;SDS011;61978;52.742;16.962;2023-06-22T03:11:43;57.10;;;29.60;;
73678;SDS011;61978;52.742;16.962;2023-06-22T03:14:09;61.40;;;29.40;;
73678;SDS011;61978;52.742;16.962;2023-06-22T03:16:34;59.00;;;30.10;;
73678;SDS011;61978;52.742;16.962;2023-06-22T03:19:04;48.80;;;26.50;;
73678;SDS011;61978;52.742;16.962;2023-06-22T03:21:30;48.10;;;27.20;;
73678;SDS011;61978;52.742;16.962;2023-06-22T03:23:59;48.60;;;27.10;;
73678;SDS011;61978;52.742;16.962;2023-06-22T03:26:26;52.40;;;27.30;;
73678;SDS011;61978;52.742;16.962;2023-06-22T03:28:52;48.90;;;27.30;;
73678;SDS011;61978;52.742;16.962;2023-06-22T03:31:18;57.20;;;28.30;;
73678;SDS011;61978;52.742;16.962;2023-06-22T03:33:47;49.00;;;27.00;;
73678;SDS011;61978;52.742;16.962;2023-06-22T03:36:16;56.20;;;28.80;;
73678;SDS011;61978;52.742;16.962;2023-06-22T03:38:46;50.60;;;27.40;;
73678;SDS011;61978;52.742;16.962;2023-06-22T03:41:12;56.70;;;26.50;;
73678;SDS011;61978;52.742;16.962;2023-06-22T03:43:44;51.60;;;26.50;;
73678;SDS011;61978;52.742;16.962;2023-06-22T03:46:10;50.30;;;23.30;;
73678;SDS011;61978;52.742;16.962;2023-06-22T03:48:37;46.10;;;26.70;;
73678;SDS011;61978;52.742;16.962;2023-06-22T03:52:47;49.40;;;27.10;;
73678;SDS011;61978;52.742;16.962;2023-06-22T03:55:13;48.00;;;27.00;;
73678;SDS011;61978;52.742;16.962;2023-06-22T03:57:38;45.40;;;26.30;;
73678;SDS011;61978;52.742;16.962;2023-06-22T04:00:04;44.80;;;25.90;;
73678;SDS011;61978;52.742;16.962;2023-06-22T04:05:04;38.00;;;22.60;;
73678;SDS011;61978;52.742;16.962;2023-06-22T04:07:30;43.80;;;25.10;;
73678;SDS011;61978;52.742;16.962;2023-06-22T04:09:56;43.60;;;25.70;;
73678;SDS011;61978;52.742;16.962;2023-06-22T04:12:22;49.00;;;26.90;;
73678;SDS011;61978;52.742;16.962;2023-06-22T04:14:48;44.30;;;24.70;;
73678;SDS011;61978;52.742;16.962;2023-06-22T04:17:16;48.10;;;23.60;;
73678;SDS011;61978;52.742;16.962;2023-06-22T04:19:43;48.80;;;26.90;;
73678;SDS011;61978;52.742;16.962;2023-06-22T04:22:15;46.40;;;26.90;;
73678;SDS011;61978;52.742;16.962;2023-06-22T04:24:45;44.60;;;24.80;;
73678;SDS011;61978;52.742;16.962;2023-06-22T04:27:30;45.30;;;24.00;;
73678;SDS011;61978;52.742;16.962;2023-06-22T04:29:57;41.70;;;23.20;;
73678;SDS011;61978;52.742;16.962;2023-06-22T04:32:25;37.00;;;22.10;;
73678;SDS011;61978;52.742;16.962;2023-06-22T04:34:51;36.90;;;21.80;;
73678;SDS011;61978;52.742;16.962;2023-06-22T04:37:17;36.70;;;21.20;;
73678;SDS011;61978;52.742;16.962;2023-06-22T04:39:44;41.60;;;25.40;;
73678;SDS011;61978;52.742;16.962;2023-06-22T04:42:11;45.10;;;27.30;;
73678;SDS011;61978;52.742;16.962;2023-06-22T04:44:44;51.10;;;29.40;;
73678;SDS011;61978;52.742;16.962;2023-06-22T04:47:09;56.40;;;30.30;;
73678;SDS011;61978;52.742;16.962;2023-06-22T04:49:36;52.20;;;28.50;;
73678;SDS011;61978;52.742;16.962;2023-06-22T04:52:03;58.60;;;32.60;;
73678;SDS011;61978;52.742;16.962;2023-06-22T04:54:29;56.90;;;31.60;;
73678;SDS011;61978;52.742;16.962;2023-06-22T04:56:54;57.00;;;30.60;;
73678;SDS011;61978;52.742;16.962;2023-06-22T04:59:23;49.40;;;29.20;;
73678;SDS011;61978;52.742;16.962;2023-06-22T05:01:54;52.50;;;28.80;;
73678;SDS011;61978;52.742;16.962;2023-06-22T05:04:20;51.70;;;30.20;;
73678;SDS011;61978;52.742;16.962;2023-06-22T05:06:46;41.90;;;25.40;;
73678;SDS011;61978;52.742;16.962;2023-06-22T05:09:11;33.80;;;22.30;;
73678;SDS011;61978;52.742;16.962;2023-06-22T05:11:37;32.20;;;22.20;;
73678;SDS011;61978;52.742;16.962;2023-06-22T05:14:03;29.50;;;18.30;;
73678;SDS011;61978;52.742;16.962;2023-06-22T05:16:28;31.10;;;17.50;;
73678;SDS011;61978;52.742;16.962;2023-06-22T05:18:54;26.30;;;16.10;;
73678;SDS011;61978;52.742;16.962;2023-06-22T05:21:23;20.50;;;14.10;;
73678;SDS011;61978;52.742;16.962;2023-06-22T05:23:50;15.80;;;12.80;;
73678;SDS011;61978;52.742;16.962;2023-06-22T05:29:02;13.50;;;10.00;;
73678;SDS011;61978;52.742;16.962;2023-06-22T05:31:28;11.40;;;8.00;;
73678;SDS011;61978;52.742;16.962;2023-06-22T05:33:54;18.10;;;8.20;;
73678;SDS011;61978;52.742;16.962;2023-06-22T05:36:20;9.70;;;7.80;;
73678;SDS011;61978;52.742;16.962;2023-06-22T05:38:50;9.80;;;7.50;;
73678;SDS011;61978;52.742;16.962;2023-06-22T05:41:16;11.60;;;7.40;;
73678;SDS011;61978;52.742;16.962;2023-06-22T05:43:42;13.20;;;7.90;;
73678;SDS011;61978;52.742;16.962;2023-06-22T05:46:11;18.60;;;8.60;;
73678;SDS011;61978;52.742;16.962;2023-06-22T05:48:37;14.20;;;6.50;;
73678;SDS011;61978;52.742;16.962;2023-06-22T05:51:03;15.40;;;6.90;;
73678;SDS011;61978;52.742;16.962;2023-06-22T05:53:29;10.10;;;6.20;;
73678;SDS011;61978;52.742;16.962;2023-06-22T05:55:54;15.30;;;7.10;;
73678;SDS011;61978;52.742;16.962;2023-06-22T05:58:20;8.40;;;6.30;;
73678;SDS011;61978;52.742;16.962;2023-06-22T06:00:46;13.90;;;6.70;;
73678;SDS011;61978;52.742;16.962;2023-06-22T06:03:14;10.20;;;6.50;;
73678;SDS011;61978;52.742;16.962;2023-06-22T06:05:42;10.00;;;6.00;;
73678;SDS011;61978;52.742;16.962;2023-06-22T06:08:08;9.70;;;6.30;;
73678;SDS011;61978;52.742;16.962;2023-06-22T06:10:36;11.30;;;5.80;;
73678;SDS011;61978;52.742;16.962;2023-06-22T06:13:02;8.70;;;5.50;;
73678;SDS011;61978;52.742;16.962;2023-06-22T06:15:29;11.20;;;5.50;;
73678;SDS011;61978;52.742;16.962;2023-06-22T06:17:56;8.20;;;5.40;;
73678;SDS011;61978;52.742;16.962;2023-06-22T06:20:22;9.60;;;5.80;;
73678;SDS011;61978;52.742;16.962;2023-06-22T06:22:54;8.30;;;5.30;;
73678;SDS011;61978;52.742;16.962;2023-06-22T06:25:20;7.90;;;5.80;;
73678;SDS011;61978;52.742;16.962;2023-06-22T06:27:47;9.50;;;6.00;;
73678;SDS011;61978;52.742;16.962;2023-06-22T06:30:14;9.00;;;5.80;;
73678;SDS011;61978;52.742;16.962;2023-06-22T06:32:40;7.20;;;5.50;;
73678;SDS011;61978;52.742;16.962;2023-06-22T06:35:06;10.30;;;5.70;;
73678;SDS011;61978;52.742;16.962;2023-06-22T06:37:35;9.70;;;6.10;;
73678;SDS011;61978;52.742;16.962;2023-06-22T06:40:01;5.80;;;5.10;;
73678;SDS011;61978;52.742;16.962;2023-06-22T06:42:27;9.30;;;5.50;;
73678;SDS011;61978;52.742;16.962;2023-06-22T06:44:53;8.70;;;5.10;;
73678;SDS011;61978;52.742;16.962;2023-06-22T06:47:23;12.80;;;5.70;;
73678;SDS011;61978;52.742;16.962;2023-06-22T06:49:56;8.00;;;5.70;;
73678;SDS011;61978;52.742;16.962;2023-06-22T06:52:22;10.50;;;5.80;;
73678;SDS011;61978;52.742;16.962;2023-06-22T06:55:14;5.70;;;5.10;;
73678;SDS011;61978;52.742;16.962;2023-06-22T06:57:51;7.00;;;5.20;;
73678;SDS011;61978;52.742;16.962;2023-06-22T07:00:37;8.10;;;5.80;;
73678;SDS011;61978;52.742;16.962;2023-06-22T07:03:04;11.40;;;5.90;;
73678;SDS011;61978;52.742;16.962;2023-06-22T07:05:32;6.70;;;5.70;;
73678;SDS011;61978;52.742;16.962;2023-06-22T07:07:58;8.00;;;5.50;;
73678;SDS011;61978;52.742;16.962;2023-06-22T07:10:25;7.20;;;4.10;;
73678;SDS011;61978;52.742;16.962;2023-06-22T07:12:51;8.00;;;5.20;;
73678;SDS011;61978;52.742;16.962;2023-06-22T07:15:19;9.10;;;4.40;;
73678;SDS011;61978;52.742;16.962;2023-06-22T07:17:45;6.70;;;4.70;;
73678;SDS011;61978;52.742;16.962;2023-06-22T07:20:11;7.10;;;5.20;;
73678;SDS011;61978;52.742;16.962;2023-06-22T07:22:37;6.70;;;4.80;;
73678;SDS011;61978;52.742;16.962;2023-06-22T07:25:03;5.90;;;4.20;;
73678;SDS011;61978;52.742;16.962;2023-06-22T07:27:36;9.60;;;4.00;;
73678;SDS011;61978;52.742;16.962;2023-06-22T07:30:03;6.80;;;4.70;;
73678;SDS011;61978;52.742;16.962;2023-06-22T07:32:30;5.90;;;4.30;;
73678;SDS011;61978;52.742;16.962;2023-06-22T07:34:56;7.00;;;4.40;;
73678;SDS011;61978;52.742;16.962;2023-06-22T07:37:23;9.30;;;5.10;;
73678;SDS011;61978;52.742;16.962;2023-06-22T07:39:49;8.50;;;4.70;;
73678;SDS011;61978;52.742;16.962;2023-06-22T07:42:19;7.40;;;4.70;;
73678;SDS011;61978;52.742;16.962;2023-06-22T07:44:44;12.40;;;4.70;;
73678;SDS011;61978;52.742;16.962;2023-06-22T07:47:12;11.00;;;5.00;;
73678;SDS011;61978;52.742;16.962;2023-06-22T07:49:39;7.70;;;4.90;;
73678;SDS011;61978;52.742;16.962;2023-06-22T07:52:05;6.90;;;4.90;;
73678;SDS011;61978;52.742;16.962;2023-06-22T07:54:32;6.70;;;5.30;;
73678;SDS011;61978;52.742;16.962;2023-06-22T07:56:58;6.70;;;4.80;;
73678;SDS011;61978;52.742;16.962;2023-06-22T07:59:25;5.30;;;4.80;;
73678;SDS011;61978;52.742;16.962;2023-06-22T08:01:51;7.50;;;4.10;;
73678;SDS011;61978;52.742;16.962;2023-06-22T08:04:17;7.90;;;4.10;;
73678;SDS011;61978;52.742;16.962;2023-06-22T08:06:43;5.60;;;3.20;;
73678;SDS011;61978;52.742;16.962;2023-06-22T08:09:09;5.70;;;3.00;;
73678;SDS011;61978;52.742;16.962;2023-06-22T08:11:35;5.70;;;3.80;;
73678;SDS011;61978;52.742;16.962;2023-06-22T08:14:01;5.40;;;4.00;;
73678;SDS011;61978;52.742;16.962;2023-06-22T08:16:26;6.60;;;3.00;;
73678;SDS011;61978;52.742;16.962;2023-06-22T08:18:53;4.60;;;3.60;;
73678;SDS011;61978;52.742;16.962;2023-06-22T08:21:24;5.30;;;3.40;;
73678;SDS011;61978;52.742;16.962;2023-06-22T08:23:49;3.30;;;3.00;;
73678;SDS011;61978;52.742;16.962;2023-06-22T08:26:16;5.00;;;3.00;;
73678;SDS011;61978;52.742;16.962;2023-06-22T08:28:45;3.10;;;2.50;;
73678;SDS011;61978;52.742;16.962;2023-06-22T08:31:15;6.30;;;2.70;;
73678;SDS011;61978;52.742;16.962;2023-06-22T08:33:41;5.70;;;3.30;;
73678;SDS011;61978;52.742;16.962;2023-06-22T08:36:08;6.00;;;3.10;;
73678;SDS011;61978;52.742;16.962;2023-06-22T08:38:36;3.10;;;2.70;;
73678;SDS011;61978;52.742;16.962;2023-06-22T08:41:04;4.60;;;3.10;;
73678;SDS011;61978;52.742;16.962;2023-06-22T08:43:35;4.80;;;3.10;;
73678;SDS011;61978;52.742;16.962;2023-06-22T08:46:01;7.90;;;3.20;;
73678;SDS011;61978;52.742;16.962;2023-06-22T08:48:28;4.90;;;2.90;;
73678;SDS011;61978;52.742;16.962;2023-06-22T08:50:57;4.00;;;3.10;;
73678;SDS011;61978;52.742;16.962;2023-06-22T08:53:22;3.70;;;3.00;;
73678;SDS011;61978;52.742;16.962;2023-06-22T08:55:48;5.40;;;3.00;;
73678;SDS011;61978;52.742;16.962;2023-06-22T08:58:22;5.50;;;2.70;;
73678;SDS011;61978;52.742;16.962;2023-06-22T09:00:50;3.30;;;2.70;;
73678;SDS011;61978;52.742;16.962;2023-06-22T09:03:19;3.50;;;2.80;;
73678;SDS011;61978;52.742;16.962;2023-06-22T09:05:48;5.40;;;3.00;;
73678;SDS011;61978;52.742;16.962;2023-06-22T09:08:17;6.30;;;3.40;;
73678;SDS011;61978;52.742;16.962;2023-06-22T09:10:52;5.40;;;2.90;;
73678;SDS011;61978;52.742;16.962;2023-06-22T09:13:18;6.00;;;3.20;;
73678;SDS011;61978;52.742;16.962;2023-06-22T09:15:50;4.90;;;2.60;;
73678;SDS011;61978;52.742;16.962;2023-06-22T09:18:18;6.20;;;3.10;;
73678;SDS011;61978;52.742;16.962;2023-06-22T09:20:44;5.50;;;2.30;;
73678;SDS011;61978;52.742;16.962;2023-06-22T09:23:10;10.60;;;3.40;;
73678;SDS011;61978;52.742;16.962;2023-06-22T09:25:40;3.50;;;2.50;;
73678;SDS011;61978;52.742;16.962;2023-06-22T09:28:06;3.20;;;2.90;;
73678;SDS011;61978;52.742;16.962;2023-06-22T09:30:35;5.10;;;3.00;;
73678;SDS011;61978;52.742;16.962;2023-06-22T09:33:09;4.10;;;2.70;;
73678;SDS011;61978;52.742;16.962;2023-06-22T09:35:34;5.80;;;2.90;;
73678;SDS011;61978;52.742;16.962;2023-06-22T09:38:09;3.50;;;2.30;;
73678;SDS011;61978;52.742;16.962;2023-06-22T09:40:35;3.50;;;2.40;;
73678;SDS011;61978;52.742;16.962;2023-06-22T09:43:10;3.10;;;2.30;;
73678;SDS011;61978;52.742;16.962;2023-06-22T09:45:37;4.70;;;2.60;;
73678;SDS011;61978;52.742;16.962;2023-06-22T09:48:02;5.30;;;2.40;;
73678;SDS011;61978;52.742;16.962;2023-06-22T09:50:38;4.00;;;2.60;;
73678;SDS011;61978;52.742;16.962;2023-06-22T09:53:30;4.50;;;2.10;;
73678;SDS011;61978;52.742;16.962;2023-06-22T09:55:55;6.00;;;3.00;;
73678;SDS011;61978;52.742;16.962;2023-06-22T09:58:22;5.80;;;2.70;;
73678;SDS011;61978;52.742;16.962;2023-06-22T10:00:50;3.20;;;2.60;;
73678;SDS011;61978;52.742;16.962;2023-06-22T10:03:20;3.40;;;2.40;;
73678;SDS011;61978;52.742;16.962;2023-06-22T10:05:46;5.90;;;2.00;;
73678;SDS011;61978;52.742;16.962;2023-06-22T10:08:12;3.70;;;2.00;;
73678;SDS011;61978;52.742;16.962;2023-06-22T10:10:37;7.60;;;2.70;;
73678;SDS011;61978;52.742;16.962;2023-06-22T10:13:12;7.00;;;2.70;;
73678;SDS011;61978;52.742;16.962;2023-06-22T10:15:44;3.70;;;2.20;;
73678;SDS011;61978;52.742;16.962;2023-06-22T10:18:15;8.80;;;2.10;;
73678;SDS011;61978;52.742;16.962;2023-06-22T10:20:52;2.60;;;1.60;;
73678;SDS011;61978;52.742;16.962;2023-06-22T10:23:19;4.70;;;2.20;;
73678;SDS011;61978;52.742;16.962;2023-06-22T10:25:49;4.00;;;2.00;;
73678;SDS011;61978;52.742;16.962;2023-06-22T10:28:15;2.60;;;1.90;;
73678;SDS011;61978;52.742;16.962;2023-06-22T10:30:55;3.90;;;2.20;;
73678;SDS011;61978;52.742;16.962;2023-06-22T10:33:21;11.70;;;2.30;;
73678;SDS011;61978;52.742;16.962;2023-06-22T10:35:46;4.90;;;2.60;;
73678;SDS011;61978;52.742;16.962;2023-06-22T10:38:12;2.40;;;1.80;;
73678;SDS011;61978;52.742;16.962;2023-06-22T10:40:42;4.10;;;2.10;;
73678;SDS011;61978;52.742;16.962;2023-06-22T10:43:07;1.90;;;1.70;;
73678;SDS011;61978;52.742;16.962;2023-06-22T10:45:33;2.60;;;2.20;;
73678;SDS011;61978;52.742;16.962;2023-06-22T10:48:15;3.50;;;1.80;;
73678;SDS011;61978;52.742;16.962;2023-06-22T10:50:41;4.30;;;2.20;;
73678;SDS011;61978;52.742;16.962;2023-06-22T10:53:07;2.00;;;1.70;;
73678;SDS011;61978;52.742;16.962;2023-06-22T10:55:36;2.60;;;1.80;;
73678;SDS011;61978;52.742;16.962;2023-06-22T10:58:07;4.60;;;2.20;;
73678;SDS011;61978;52.742;16.962;2023-06-22T11:00:36;3.10;;;2.10;;
73678;SDS011;61978;52.742;16.962;2023-06-22T11:03:05;2.70;;;1.90;;
73678;SDS011;61978;52.742;16.962;2023-06-22T11:05:55;2.50;;;1.70;;
73678;SDS011;61978;52.742;16.962;2023-06-22T11:08:21;3.10;;;1.80;;
73678;SDS011;61978;52.742;16.962;2023-06-22T11:10:47;2.70;;;2.00;;
73678;SDS011;61978;52.742;16.962;2023-06-22T11:13:13;2.40;;;1.70;;
73678;SDS011;61978;52.742;16.962;2023-06-22T11:15:38;2.30;;;2.00;;
73678;SDS011;61978;52.742;16.962;2023-06-22T11:18:04;4.20;;;2.30;;
73678;SDS011;61978;52.742;16.962;2023-06-22T11:20:33;2.30;;;2.00;;
73678;SDS011;61978;52.742;16.962;2023-06-22T11:23:04;3.30;;;2.20;;
73678;SDS011;61978;52.742;16.962;2023-06-22T11:25:31;3.10;;;2.00;;
73678;SDS011;61978;52.742;16.962;2023-06-22T11:27:57;4.70;;;1.90;;
73678;SDS011;61978;52.742;16.962;2023-06-22T11:30:22;3.50;;;2.20;;
73678;SDS011;61978;52.742;16.962;2023-06-22T11:32:48;8.90;;;2.60;;
73678;SDS011;61978;52.742;16.962;2023-06-22T11:35:14;2.20;;;1.90;;
73678;SDS011;61978;52.742;16.962;2023-06-22T11:37:40;2.50;;;2.10;;
73678;SDS011;61978;52.742;16.962;2023-06-22T11:40:07;6.90;;;2.10;;
73678;SDS011;61978;52.742;16.962;2023-06-22T11:42:34;3.10;;;1.80;;
73678;SDS011;61978;52.742;16.962;2023-06-22T11:45:00;2.90;;;2.00;;
73678;SDS011;61978;52.742;16.962;2023-06-22T11:47:25;2.30;;;1.70;;
73678;SDS011;61978;52.742;16.962;2023-06-22T11:49:51;1.90;;;1.40;;
73678;SDS011;61978;52.742;16.962;2023-06-22T11:52:17;2.40;;;1.80;;
73678;SDS011;61978;52.742;16.962;2023-06-22T11:54:43;2.10;;;1.70;;
73678;SDS011;61978;52.742;16.962;2023-06-22T11:57:08;2.70;;;2.30;;
73678;SDS011;61978;52.742;16.962;2023-06-22T11:59:34;2.10;;;1.80;;
73678;SDS011;61978;52.742;16.962;2023-06-22T12:01:59;2.10;;;1.80;;
73678;SDS011;61978;52.742;16.962;2023-06-22T12:04:25;3.60;;;1.80;;
73678;SDS011;61978;52.742;16.962;2023-06-22T12:06:51;3.00;;;1.90;;
73678;SDS011;61978;52.742;16.962;2023-06-22T12:09:17;2.10;;;1.90;;
73678;SDS011;61978;52.742;16.962;2023-06-22T12:11:42;2.50;;;2.00;;
73678;SDS011;61978;52.742;16.962;2023-06-22T12:14:08;4.50;;;1.90;;
73678;SDS011;61978;52.742;16.962;2023-06-22T12:16:34;2.40;;;1.90;;
73678;SDS011;61978;52.742;16.962;2023-06-22T12:18:59;5.90;;;2.60;;
73678;SDS011;61978;52.742;16.962;2023-06-22T12:21:25;2.80;;;2.30;;
73678;SDS011;61978;52.742;16.962;2023-06-22T12:24:06;2.60;;;2.10;;
73678;SDS011;61978;52.742;16.962;2023-06-22T12:26:32;3.30;;;2.00;;
73678;SDS011;61978;52.742;16.962;2023-06-22T12:28:57;5.70;;;2.70;;
73678;SDS011;61978;52.742;16.962;2023-06-22T12:31:23;3.30;;;2.30;;
73678;SDS011;61978;52.742;16.962;2023-06-22T12:33:49;4.20;;;1.90;;
73678;SDS011;61978;52.742;16.962;2023-06-22T12:36:14;2.50;;;2.30;;
73678;SDS011;61978;52.742;16.962;2023-06-22T12:38:42;4.30;;;1.90;;
73678;SDS011;61978;52.742;16.962;2023-06-22T12:41:07;3.10;;;1.50;;
73678;SDS011;61978;52.742;16.962;2023-06-22T12:43:33;4.70;;;2.30;;
73678;SDS011;61978;52.742;16.962;2023-06-22T12:45:59;4.70;;;1.90;;
73678;SDS011;61978;52.742;16.962;2023-06-22T12:48:28;4.10;;;2.00;;
73678;SDS011;61978;52.742;16.962;2023-06-22T12:50:54;3.60;;;2.00;;
73678;SDS011;61978;52.742;16.962;2023-06-22T12:53:20;2.90;;;2.20;;
73678;SDS011;61978;52.742;16.962;2023-06-22T12:55:49;3.40;;;2.10;;
73678;SDS011;61978;52.742;16.962;2023-06-22T12:58:14;2.60;;;2.40;;
73678;SDS011;61978;52.742;16.962;2023-06-22T13:00:40;7.70;;;2.20;;
73678;SDS011;61978;52.742;16.962;2023-06-22T13:03:06;2.80;;;2.00;;
73678;SDS011;61978;52.742;16.962;2023-06-22T13:05:32;2.50;;;2.00;;
73678;SDS011;61978;52.742;16.962;2023-06-22T13:08:00;3.70;;;2.50;;
73678;SDS011;61978;52.742;16.962;2023-06-22T13:10:26;2.10;;;1.90;;
73678;SDS011;61978;52.742;16.962;2023-06-22T13:12:52;5.50;;;2.20;;
73678;SDS011;61978;52.742;16.962;2023-06-22T13:15:28;8.40;;;2.00;;
73678;SDS011;61978;52.742;16.962;2023-06-22T13:17:55;3.10;;;2.70;;
73678;SDS011;61978;52.742;16.962;2023-06-22T13:20:21;3.20;;;2.10;;
73678;SDS011;61978;52.742;16.962;2023-06-22T13:22:47;2.70;;;2.00;;
73678;SDS011;61978;52.742;16.962;2023-06-22T13:25:13;2.70;;;2.20;;
73678;SDS011;61978;52.742;16.962;2023-06-22T13:27:44;5.00;;;2.80;;
73678;SDS011;61978;52.742;16.962;2023-06-22T13:30:10;4.90;;;2.40;;
73678;SDS011;61978;52.742;16.962;2023-06-22T13:32:36;4.60;;;2.20;;
73678;SDS011;61978;52.742;16.962;2023-06-22T13:35:02;3.90;;;2.60;;
73678;SDS011;61978;52.742;16.962;2023-06-22T13:37:27;3.40;;;2.70;;
73678;SDS011;61978;52.742;16.962;2023-06-22T13:39:53;2.70;;;2.40;;
73678;SDS011;61978;52.742;16.962;2023-06-22T13:42:21;2.90;;;2.70;;
73678;SDS011;61978;52.742;16.962;2023-06-22T13:44:47;6.10;;;2.50;;
73678;SDS011;61978;52.742;16.962;2023-06-22T13:47:13;5.50;;;2.30;;
73678;SDS011;61978;52.742;16.962;2023-06-22T13:49:38;3.50;;;2.30;;
73678;SDS011;61978;52.742;16.962;2023-06-22T13:52:04;2.90;;;2.60;;
73678;SDS011;61978;52.742;16.962;2023-06-22T13:54:35;5.70;;;2.10;;
73678;SDS011;61978;52.742;16.962;2023-06-22T13:57:02;2.60;;;2.40;;
73678;SDS011;61978;52.742;16.962;2023-06-22T13:59:29;3.30;;;2.00;;
73678;SDS011;61978;52.742;16.962;2023-06-22T14:01:54;4.00;;;2.20;;
73678;SDS011;61978;52.742;16.962;2023-06-22T14:04:21;2.80;;;2.40;;
73678;SDS011;61978;52.742;16.962;2023-06-22T14:06:47;4.00;;;2.80;;
73678;SDS011;61978;52.742;16.962;2023-06-22T14:09:13;2.80;;;2.40;;
73678;SDS011;61978;52.742;16.962;2023-06-22T14:11:38;3.40;;;2.40;;
73678;SDS011;61978;52.742;16.962;2023-06-22T14:14:04;2.70;;;2.00;;
73678;SDS011;61978;52.742;16.962;2023-06-22T14:16:30;2.80;;;2.00;;
73678;SDS011;61978;52.742;16.962;2023-06-22T14:18:56;5.10;;;2.30;;
73678;SDS011;61978;52.742;16.962;2023-06-22T14:21:22;3.10;;;2.10;;
73678;SDS011;61978;52.742;16.962;2023-06-22T14:23:48;2.50;;;2.20;;
73678;SDS011;61978;52.742;16.962;2023-06-22T14:26:17;4.40;;;2.20;;
73678;SDS011;61978;52.742;16.962;2023-06-22T14:28:46;4.70;;;2.20;;
73678;SDS011;61978;52.742;16.962;2023-06-22T14:31:17;3.60;;;2.50;;
73678;SDS011;61978;52.742;16.962;2023-06-22T14:33:45;2.10;;;1.90;;
73678;SDS011;61978;52.742;16.962;2023-06-22T14:36:11;2.70;;;2.10;;
73678;SDS011;61978;52.742;16.962;2023-06-22T14:38:36;2.50;;;2.30;;
73678;SDS011;61978;52.742;16.962;2023-06-22T14:41:02;3.20;;;2.20;;
73678;SDS011;61978;52.742;16.962;2023-06-22T14:43:28;2.30;;;2.10;;
73678;SDS011;61978;52.742;16.962;2023-06-22T14:45:53;2.70;;;2.30;;
73678;SDS011;61978;52.742;16.962;2023-06-22T14:48:19;2.40;;;2.00;;
73678;SDS011;61978;52.742;16.962;2023-06-22T14:50:45;4.00;;;2.30;;
73678;SDS011;61978;52.742;16.962;2023-06-22T14:53:11;6.00;;;2.40;;
73678;SDS011;61978;52.742;16.962;2023-06-22T14:55:36;2.40;;;1.80;;
73678;SDS011;61978;52.742;16.962;2023-06-22T14:58:02;4.10;;;2.30;;
73678;SDS011;61978;52.742;16.962;2023-06-22T15:00:28;4.20;;;2.20;;
73678;SDS011;61978;52.742;16.962;2023-06-22T15:02:54;3.00;;;2.20;;
73678;SDS011;61978;52.742;16.962;2023-06-22T15:05:19;2.30;;;2.00;;
73678;SDS011;61978;52.742;16.962;2023-06-22T15:07:45;4.50;;;2.40;;
73678;SDS011;61978;52.742;16.962;2023-06-22T15:10:10;4.60;;;2.30;;
73678;SDS011;61978;52.742;16.962;2023-06-22T15:12:36;4.20;;;2.40;;
73678;SDS011;61978;52.742;16.962;2023-06-22T15:15:02;4.70;;;2.90;;
73678;SDS011;61978;52.742;16.962;2023-06-22T15:17:27;2.40;;;2.20;;
73678;SDS011;61978;52.742;16.962;2023-06-22T15:19:57;4.60;;;2.30;;
73678;SDS011;61978;52.742;16.962;2023-06-22T15:22:23;5.40;;;2.60;;
73678;SDS011;61978;52.742;16.962;2023-06-22T15:24:49;2.30;;;1.90;;
73678;SDS011;61978;52.742;16.962;2023-06-22T15:27:23;3.50;;;2.20;;
73678;SDS011;61978;52.742;16.962;2023-06-22T15:29:49;4.10;;;2.00;;
73678;SDS011;61978;52.742;16.962;2023-06-22T15:32:15;4.50;;;2.60;;
73678;SDS011;61978;52.742;16.962;2023-06-22T15:34:41;3.00;;;2.00;;
73678;SDS011;61978;52.742;16.962;2023-06-22T15:37:06;3.00;;;2.50;;